createdAt,value
2022-08-17T00:01:32.770Z,100448.88
2022-08-17T00:04:19.059Z,100443.91
2022-08-17T00:06:45.823Z,100442.19
2022-08-17T00:09:12.575Z,100448.56
2022-08-17T00:12:35.091Z,100452.31
2022-08-17T00:14:31.827Z,100451.50
2022-08-17T00:16:58.836Z,100442.69
2022-08-17T00:19:26.361Z,100436.91
2022-08-17T00:22:31.323Z,100438.69
2022-08-17T00:24:43.055Z,100435.31
2022-08-17T00:27:09.540Z,100430.78
2022-08-17T00:29:36.003Z,100428.81
2022-08-17T00:33:13.959Z,100436.09
2022-08-17T00:34:49.977Z,100435.16
2022-08-17T00:37:16.678Z,100427.88
2022-08-17T00:39:43.237Z,100431.13
2022-08-17T00:42:14.933Z,100438.84
2022-08-17T00:44:41.398Z,100434.63
2022-08-17T00:47:07.930Z,100431.22
2022-08-17T00:49:34.434Z,100433.75
2022-08-17T00:52:10.875Z,100433.59
2022-08-17T00:54:42.389Z,100430.19
2022-08-17T00:57:15.030Z,100419.63
2022-08-17T00:59:47.173Z,100426.13
2022-08-17T01:02:41.256Z,100426.44
2022-08-17T01:05:15.273Z,100433.78
2022-08-17T01:07:43.392Z,100433.69
2022-08-17T01:11:00.255Z,100438.19
2022-08-17T01:13:02.489Z,100443.53
2022-08-17T01:15:36.427Z,100438.28
2022-08-17T01:18:07.889Z,100442.50
2022-08-17T01:20:48.614Z,100443.38
2022-08-17T01:23:20.818Z,100433.09
2022-08-17T01:25:53.968Z,100437.50
2022-08-17T01:28:33.630Z,100446.09
2022-08-17T01:31:09.602Z,100444.78
2022-08-17T01:33:36.834Z,100440.84
2022-08-17T01:36:06.871Z,100430.91
2022-08-17T01:38:35.893Z,100441.06
2022-08-17T01:41:07.824Z,100445.34
2022-08-17T01:43:57.340Z,100445.78
2022-08-17T01:46:29.179Z,100447.72
2022-08-17T01:48:57.560Z,100449.31
2022-08-17T01:51:32.721Z,100442.25
2022-08-17T01:54:05.209Z,100450.34
2022-08-17T01:56:33.883Z,100445.38
2022-08-17T01:59:00.358Z,100455.19
2022-08-17T02:01:30.135Z,100449.66
2022-08-17T02:04:00.769Z,100454.94
2022-08-17T02:06:30.523Z,100451.13
2022-08-17T02:09:03.051Z,100447.63
2022-08-17T02:11:33.171Z,100449.94
2022-08-17T02:14:02.887Z,100462.28
2022-08-17T02:16:37.288Z,100455.34
2022-08-17T02:19:07.531Z,100455.94
2022-08-17T02:21:34.639Z,100461.19
2022-08-17T02:24:01.773Z,100465.41
2022-08-17T02:26:28.370Z,100464.44
2022-08-17T02:28:54.934Z,100456.47
2022-08-17T02:31:21.689Z,100452.28
2022-08-17T02:34:00.422Z,100444.41
2022-08-17T02:36:33.041Z,100442.38
2022-08-17T02:39:01.451Z,100436.00
2022-08-17T02:41:28.006Z,100436.78
2022-08-17T02:43:54.490Z,100443.09
2022-08-17T02:46:21.024Z,100441.34
2022-08-17T02:48:47.526Z,100444.69
2022-08-17T02:51:14.589Z,100459.56
2022-08-17T02:53:41.071Z,100464.97
2022-08-17T02:56:07.728Z,100462.63
2022-08-17T02:58:35.331Z,100466.34
2022-08-17T03:01:06.531Z,100463.59
2022-08-17T03:03:33.185Z,100463.38
2022-08-17T03:05:59.859Z,100453.50
2022-08-17T03:08:26.564Z,100449.91
2022-08-17T03:10:53.642Z,100440.41
2022-08-17T03:13:20.730Z,100440.06
2022-08-17T03:15:48.586Z,100433.03
2022-08-17T03:18:19.159Z,100429.41
2022-08-17T03:20:52.063Z,100420.66
2022-08-17T03:23:18.683Z,100417.72
2022-08-17T03:25:53.075Z,100423.09
2022-08-17T03:28:21.206Z,100431.22
2022-08-17T03:30:47.712Z,100440.97
2022-08-17T03:33:14.618Z,100454.97
2022-08-17T03:35:41.475Z,100462.72
2022-08-17T03:38:10.275Z,100446.88
2022-08-17T03:40:58.057Z,100446.00
2022-08-17T03:43:24.225Z,100450.25
2022-08-17T03:46:26.997Z,100444.97
2022-08-17T03:49:15.558Z,100443.88
2022-08-17T03:52:00.349Z,100443.22
2022-08-17T03:54:45.180Z,100440.06
2022-08-17T03:57:12.427Z,100438.28
2022-08-17T03:59:39.098Z,100443.09
2022-08-17T04:02:18.595Z,100446.56
2022-08-17T04:04:45.130Z,100449.94
2022-08-17T04:07:11.697Z,100452.94
2022-08-17T04:09:38.261Z,100451.19
2022-08-17T04:12:05.453Z,100444.75
2022-08-17T04:14:39.256Z,100439.31
2022-08-17T04:17:21.203Z,100435.03
2022-08-17T04:19:47.763Z,100440.28
2022-08-17T04:22:30.188Z,100441.09
2022-08-17T04:24:58.899Z,100447.22
2022-08-17T04:27:25.508Z,100461.81
2022-08-17T04:29:54.763Z,100455.44
2022-08-17T04:33:02.920Z,100471.59
2022-08-17T04:35:09.722Z,100478.06
2022-08-17T04:37:36.212Z,100484.88
2022-08-17T04:40:21.986Z,100487.69
2022-08-17T04:43:10.638Z,100496.41
2022-08-17T04:45:55.458Z,100507.94
2022-08-17T04:48:35.774Z,100512.31
2022-08-17T04:51:07.305Z,100512.34
2022-08-17T04:53:33.874Z,100513.91
2022-08-17T04:56:00.405Z,100514.78
2022-08-17T04:58:27.826Z,100520.00
2022-08-17T05:00:54.345Z,100517.59
2022-08-17T05:03:20.961Z,100528.31
2022-08-17T05:05:49.586Z,100531.94
2022-08-17T05:08:19.045Z,100541.09
2022-08-17T05:10:46.882Z,100542.25
2022-08-17T05:13:17.033Z,100549.69
2022-08-17T05:15:47.794Z,100564.00
2022-08-17T05:18:15.637Z,100565.59
2022-08-17T05:20:42.850Z,100560.00
2022-08-17T05:23:12.989Z,100560.06
2022-08-17T05:25:42.235Z,100563.16
2022-08-17T05:28:15.981Z,100563.50
2022-08-17T05:30:43.986Z,100562.81
2022-08-17T05:33:14.919Z,100562.75
2022-08-17T05:35:46.922Z,100561.63
2022-08-17T05:38:15.264Z,100568.53
2022-08-17T05:40:41.992Z,100560.38
2022-08-17T05:43:15.161Z,100565.91
2022-08-17T05:46:01.913Z,100576.00
2022-08-17T05:48:39.176Z,100578.00
2022-08-17T05:51:06.674Z,100585.91
2022-08-17T05:53:47.189Z,100579.91
2022-08-17T05:56:37.299Z,100579.66
2022-08-17T05:59:30.490Z,100587.66
2022-08-17T06:02:06.169Z,100590.41
2022-08-17T06:04:54.060Z,100594.28
2022-08-17T06:07:48.058Z,100580.81
2022-08-17T06:10:18.468Z,100589.84
2022-08-17T06:13:21.431Z,100591.47
2022-08-17T06:15:56.413Z,100592.31
2022-08-17T06:18:28.609Z,100591.69
2022-08-17T06:21:00.403Z,100594.28
2022-08-17T06:23:36.125Z,100598.75
2022-08-17T06:26:10.986Z,100605.94
2022-08-17T06:28:43.622Z,100607.63
2022-08-17T06:31:22.553Z,100601.28
2022-08-17T06:33:50.305Z,100584.44
2022-08-17T06:36:50.460Z,100590.31
2022-08-17T06:39:32.828Z,100584.97
2022-08-17T06:42:54.812Z,100593.00
2022-08-17T06:45:17.711Z,100597.34
2022-08-17T06:48:13.069Z,100585.44
2022-08-17T06:50:46.497Z,100580.91
2022-08-17T06:53:47.648Z,100575.97
2022-08-17T06:56:54.227Z,100575.88
2022-08-17T06:59:22.319Z,100574.44
2022-08-17T07:01:52.122Z,100571.97
2022-08-17T07:04:26.437Z,100564.56
2022-08-17T07:07:24.724Z,100567.38
2022-08-17T07:09:53.019Z,100564.50
2022-08-17T07:12:24.341Z,100558.56
2022-08-17T07:15:18.939Z,100545.84
2022-08-17T07:17:48.957Z,100549.13
2022-08-17T07:20:20.541Z,100552.09
2022-08-17T07:23:03.315Z,100550.66
2022-08-17T07:25:30.746Z,100552.44
2022-08-17T07:28:02.400Z,100550.25
2022-08-17T07:30:45.594Z,100544.72
2022-08-17T07:33:19.856Z,100539.53
2022-08-17T07:35:48.404Z,100539.44
2022-08-17T07:38:25.205Z,100537.56
2022-08-17T07:40:57.813Z,100536.06
2022-08-17T07:43:36.817Z,100529.59
2022-08-17T07:46:53.791Z,100547.94
2022-08-17T07:49:46.403Z,100558.06
2022-08-17T07:52:51.408Z,100549.22
2022-08-17T07:55:34.976Z,100554.97
2022-08-17T07:58:04.858Z,100570.31
2022-08-17T08:00:33.568Z,100582.53
2022-08-17T08:03:31.965Z,100585.97
2022-08-17T08:06:02.080Z,100586.41
2022-08-17T08:08:34.724Z,100590.84
2022-08-17T08:11:17.802Z,100589.91
2022-08-17T08:13:45.898Z,100588.06
2022-08-17T08:16:29.498Z,100581.28
2022-08-17T08:19:01.736Z,100585.63
2022-08-17T08:21:55.304Z,100588.50
2022-08-17T08:24:46.649Z,100588.56
2022-08-17T08:27:38.463Z,100600.19
2022-08-17T08:30:16.824Z,100605.59
2022-08-17T08:32:52.036Z,100608.13
2022-08-17T08:35:22.584Z,100600.09
2022-08-17T08:38:02.538Z,100607.91
2022-08-17T08:40:42.923Z,100603.44
2022-08-17T08:43:22.292Z,100610.75
2022-08-17T08:46:07.652Z,100608.50
2022-08-17T08:48:55.999Z,100601.53
2022-08-17T08:51:33.700Z,100590.25
2022-08-17T08:54:10.568Z,100592.09
2022-08-17T08:57:22.391Z,100587.88
2022-08-17T09:00:08.557Z,100586.06
2022-08-17T09:03:10.894Z,100584.09
2022-08-17T09:06:06.892Z,100570.03
2022-08-17T09:09:09.453Z,100562.00
2022-08-17T09:12:20.857Z,100570.91
2022-08-17T09:15:15.786Z,100580.50
2022-08-17T09:17:49.525Z,100586.72
2022-08-17T09:20:33.780Z,100583.22
2022-08-17T09:23:08.586Z,100573.94
2022-08-17T09:25:56.261Z,100588.53
2022-08-17T09:28:44.756Z,100604.53
2022-08-17T09:31:20.259Z,100594.59
2022-08-17T09:33:48.884Z,100598.03
2022-08-17T09:36:26.337Z,100589.31
2022-08-17T09:39:03.155Z,100579.75
2022-08-17T09:41:58.251Z,100595.78
2022-08-17T09:44:37.873Z,100606.66
2022-08-17T09:47:32.186Z,100605.97
2022-08-17T09:50:08.971Z,100599.91
2022-08-17T09:52:35.643Z,100604.34
2022-08-17T09:55:02.215Z,100593.97
2022-08-17T09:57:34.682Z,100602.13
2022-08-17T10:00:16.589Z,100588.19
2022-08-17T10:03:16.065Z,100591.78
2022-08-17T10:05:48.866Z,100597.94
2022-08-17T10:08:25.507Z,100585.59
2022-08-17T10:10:58.964Z,100582.13
2022-08-17T10:13:35.477Z,100581.44
2022-08-17T10:16:10.786Z,100580.22
2022-08-17T10:19:15.573Z,100571.03
2022-08-17T10:22:14.711Z,100581.63
2022-08-17T10:25:22.679Z,100593.34
2022-08-17T10:28:01.703Z,100594.41
2022-08-17T10:30:32.648Z,100592.81
2022-08-17T10:33:02.748Z,100585.88
2022-08-17T10:35:37.654Z,100590.81
2022-08-17T10:38:24.404Z,100587.16
2022-08-17T10:41:00.364Z,100574.31
2022-08-17T10:44:38.282Z,100581.59
2022-08-17T10:47:14.393Z,100585.34
2022-08-17T10:49:56.083Z,100583.88
2022-08-17T10:52:22.880Z,100596.22
2022-08-17T10:54:51.392Z,100597.22
2022-08-17T10:57:27.390Z,100601.66
2022-08-17T10:59:56.070Z,100595.03
2022-08-17T11:02:31.430Z,100590.63
2022-08-17T11:05:00.671Z,100601.19
2022-08-17T11:07:43.730Z,100597.25
2022-08-17T11:10:19.250Z,100594.84
2022-08-17T11:13:03.932Z,100584.31
2022-08-17T11:15:37.926Z,100578.94
2022-08-17T11:18:32.511Z,100576.44
2022-08-17T11:21:04.911Z,100576.44
2022-08-17T11:23:48.453Z,100583.34
2022-08-17T11:26:26.504Z,100585.00
2022-08-17T11:29:00.009Z,100577.16
2022-08-17T11:31:41.472Z,100584.22
2022-08-17T11:34:18.453Z,100570.94
2022-08-17T11:37:11.696Z,100566.56
2022-08-17T11:40:06.520Z,100559.47
2022-08-17T11:43:10.689Z,100552.59
2022-08-17T11:46:10.810Z,100548.38
2022-08-17T11:49:04.994Z,100551.13
2022-08-17T11:52:01.196Z,100546.63
2022-08-17T11:54:33.835Z,100541.34
2022-08-17T11:57:27.040Z,100537.75
2022-08-17T11:59:53.502Z,100531.69
2022-08-17T12:02:19.897Z,100531.66
2022-08-17T12:05:12.413Z,100527.34
2022-08-17T12:08:15.139Z,100532.53
2022-08-17T12:11:10.665Z,100521.78
2022-08-17T12:13:54.446Z,100536.94
2022-08-17T12:16:21.935Z,100541.41
2022-08-17T12:18:57.959Z,100534.50
2022-08-17T12:21:31.379Z,100536.06
2022-08-17T12:24:23.415Z,100544.81
2022-08-17T12:26:56.814Z,100541.00
2022-08-17T12:29:35.718Z,100541.09
2022-08-17T12:32:07.073Z,100543.91
2022-08-17T12:34:39.063Z,100549.31
2022-08-17T12:37:13.432Z,100554.69
2022-08-17T12:39:49.862Z,100555.47
2022-08-17T12:42:29.954Z,100557.31
2022-08-17T12:44:57.251Z,100567.13
2022-08-17T12:47:25.029Z,100569.03
2022-08-17T12:50:08.181Z,100558.47
2022-08-17T12:52:59.697Z,100570.69
2022-08-17T12:55:32.561Z,100574.28
2022-08-17T12:58:01.872Z,100573.38
2022-08-17T13:00:40.929Z,100582.06
2022-08-17T13:03:24.199Z,100586.50
2022-08-17T13:05:59.841Z,100585.56
2022-08-17T13:08:31.345Z,100585.47
2022-08-17T13:11:24.497Z,100579.19
2022-08-17T13:13:56.988Z,100572.94
2022-08-17T13:16:30.418Z,100575.63
2022-08-17T13:19:29.788Z,100557.91
2022-08-17T13:22:11.337Z,100552.56
2022-08-17T13:24:38.659Z,100552.47
2022-08-17T13:27:09.650Z,100555.03
2022-08-17T13:29:38.976Z,100548.03
2022-08-17T13:32:13.042Z,100551.59
2022-08-17T13:35:13.197Z,100547.28
2022-08-17T13:37:36.551Z,100533.94
2022-08-17T13:40:08.823Z,100531.19
2022-08-17T13:42:52.339Z,100527.66
2022-08-17T13:45:36.341Z,100533.81
2022-08-17T13:48:27.977Z,100536.50
2022-08-17T13:50:54.393Z,100525.22
2022-08-17T13:53:29.482Z,100529.75
2022-08-17T13:56:37.801Z,100538.59
2022-08-17T13:59:02.744Z,100538.59
2022-08-17T14:01:37.442Z,100538.47
2022-08-17T14:04:07.780Z,100537.47
2022-08-17T14:06:52.892Z,100536.47
2022-08-17T14:09:47.831Z,100527.53
2022-08-17T14:12:17.436Z,100523.97
2022-08-17T14:14:44.955Z,100515.13
2022-08-17T14:17:12.424Z,100509.75
2022-08-17T14:19:39.572Z,100507.09
2022-08-17T14:22:11.585Z,100496.41
2022-08-17T14:24:44.601Z,100484.91
2022-08-17T14:27:12.042Z,100480.47
2022-08-17T14:29:41.017Z,100485.78
2022-08-17T14:32:17.765Z,100491.94
2022-08-17T14:34:45.871Z,100491.09
2022-08-17T14:37:12.454Z,100475.19
2022-08-17T14:39:39.047Z,100459.28
2022-08-17T14:42:05.693Z,100461.03
2022-08-17T14:44:32.472Z,100456.63
2022-08-17T14:46:59.013Z,100449.47
2022-08-17T14:49:25.956Z,100434.41
2022-08-17T14:51:52.857Z,100437.06
2022-08-17T14:54:32.850Z,100436.09
2022-08-17T14:57:22.193Z,100436.03
2022-08-17T14:59:48.804Z,100435.91
2022-08-17T15:02:20.150Z,100427.09
2022-08-17T15:04:47.669Z,100444.75
2022-08-17T15:07:17.817Z,100450.06
2022-08-17T15:09:44.326Z,100457.19
2022-08-17T15:12:18.187Z,100464.28
2022-08-17T15:14:44.681Z,100470.41
2022-08-17T15:17:11.531Z,100482.72
2022-08-17T15:19:37.981Z,100493.22
2022-08-17T15:22:04.507Z,100499.25
2022-08-17T15:24:30.974Z,100508.88
2022-08-17T15:26:57.469Z,100510.53
2022-08-17T15:29:23.990Z,100517.47
2022-08-17T15:31:50.486Z,100528.91
2022-08-17T15:34:17.376Z,100536.78
2022-08-17T15:36:49.231Z,100544.63
2022-08-17T15:39:19.220Z,100543.63
2022-08-17T15:41:47.265Z,100548.81
2022-08-17T15:44:24.603Z,100546.06
2022-08-17T15:46:59.280Z,100547.72
2022-08-17T15:49:25.784Z,100545.97
2022-08-17T15:51:52.263Z,100553.88
2022-08-17T15:54:22.755Z,100557.38
2022-08-17T15:56:50.277Z,100553.72
2022-08-17T15:59:16.747Z,100553.72
2022-08-17T16:03:01.766Z,100549.41
2022-08-17T16:04:31.808Z,100559.06
2022-08-17T16:06:59.887Z,100563.31
2022-08-17T16:09:26.735Z,100575.53
2022-08-17T16:11:55.520Z,100591.19
2022-08-17T16:14:24.115Z,100597.06
2022-08-17T16:16:51.063Z,100601.22
2022-08-17T16:19:17.626Z,100600.94
2022-08-17T16:21:44.105Z,100597.06
2022-08-17T16:24:13.181Z,100591.63
2022-08-17T16:26:39.986Z,100574.56
2022-08-17T16:29:06.843Z,100570.81
2022-08-17T16:31:33.596Z,100559.00
2022-08-17T16:34:15.806Z,100562.34
2022-08-17T16:36:55.182Z,100550.94
2022-08-17T16:39:27.392Z,100531.22
2022-08-17T16:41:55.668Z,100514.59
2022-08-17T16:44:22.432Z,100502.28
2022-08-17T16:46:48.987Z,100475.75
2022-08-17T16:49:35.425Z,100452.69
2022-08-17T16:52:09.613Z,100441.16
2022-08-17T16:54:43.496Z,100439.31
2022-08-17T16:57:11.303Z,100431.06
2022-08-17T16:59:40.993Z,100409.69
2022-08-17T17:02:14.378Z,100381.59
2022-08-17T17:05:18.723Z,100341.00
2022-08-17T17:08:17.508Z,100286.22
2022-08-17T17:10:57.286Z,100294.00
2022-08-17T17:13:34.786Z,100310.91
2022-08-17T17:16:28.645Z,100309.47
2022-08-17T17:19:34.318Z,100303.31
2022-08-17T17:22:27.550Z,100292.94
2022-08-17T17:25:15.950Z,100293.53
2022-08-17T17:27:48.359Z,100288.75
2022-08-17T17:30:20.665Z,100295.75
2022-08-17T17:33:13.825Z,100314.50
2022-08-17T17:35:59.464Z,100333.81
2022-08-17T17:38:34.342Z,100329.25
2022-08-17T17:41:08.564Z,100338.88
2022-08-17T17:43:40.266Z,100352.16
2022-08-17T17:46:29.294Z,100341.72
2022-08-17T17:48:59.555Z,100324.94
2022-08-17T17:52:06.887Z,100327.41
2022-08-17T17:54:55.128Z,100338.75
2022-08-17T17:57:44.141Z,100349.47
2022-08-17T18:00:19.567Z,100344.31
2022-08-17T18:03:05.618Z,100338.69
2022-08-17T18:05:44.438Z,100346.31
2022-08-17T18:08:35.715Z,100358.75
2022-08-17T18:11:26.647Z,100356.03
2022-08-17T18:14:22.982Z,100355.50
2022-08-17T18:16:55.535Z,100357.97
2022-08-17T18:19:25.632Z,100362.53
2022-08-17T18:22:02.608Z,100365.22
2022-08-17T18:24:39.215Z,100366.19
2022-08-17T18:27:21.511Z,100360.53
2022-08-17T18:29:49.410Z,100368.97
2022-08-17T18:32:21.873Z,100394.81
2022-08-17T18:34:55.906Z,100408.72
2022-08-17T18:37:33.908Z,100420.09
2022-08-17T18:40:20.283Z,100418.97
2022-08-17T18:43:26.681Z,100429.81
2022-08-17T18:45:56.722Z,100431.50
2022-08-17T18:48:33.789Z,100442.94
2022-08-17T18:51:20.285Z,100447.16
2022-08-17T18:54:06.631Z,100446.97
2022-08-17T18:56:40.328Z,100449.44
2022-08-17T18:59:23.105Z,100459.81
2022-08-17T19:02:15.341Z,100462.28
2022-08-17T19:05:07.747Z,100457.97
2022-08-17T19:07:43.337Z,100455.63
2022-08-17T19:10:28.169Z,100456.56
2022-08-17T19:13:12.809Z,100458.28
2022-08-17T19:15:48.003Z,100454.16
2022-08-17T19:18:39.257Z,100445.38
2022-08-17T19:21:16.461Z,100452.16
2022-08-17T19:24:19.332Z,100454.91
2022-08-17T19:26:55.495Z,100470.81
2022-08-17T19:29:38.525Z,100469.16
2022-08-17T19:32:07.893Z,100478.75
2022-08-17T19:34:37.179Z,100482.84
2022-08-17T19:37:31.042Z,100485.03
2022-08-17T19:40:09.769Z,100484.41
2022-08-17T19:42:54.995Z,100504.75
2022-08-17T19:45:45.098Z,100497.47
2022-08-17T19:48:14.513Z,100495.66
2022-08-17T19:50:54.163Z,100502.66
2022-08-17T19:53:36.884Z,100507.66
2022-08-17T19:56:31.049Z,100516.06
2022-08-17T19:59:11.275Z,100526.00
2022-08-17T20:02:01.086Z,100528.75
2022-08-17T20:04:32.007Z,100524.97
2022-08-17T20:07:23.481Z,100523.97
2022-08-17T20:09:54.058Z,100531.84
2022-08-17T20:12:26.617Z,100537.16
2022-08-17T20:15:00.010Z,100538.19
2022-08-17T20:17:39.335Z,100534.75
2022-08-17T20:20:20.864Z,100540.03
2022-08-17T20:23:11.825Z,100534.91
2022-08-17T20:25:45.311Z,100561.25
2022-08-17T20:28:23.900Z,100554.31
2022-08-17T20:30:52.006Z,100556.31
2022-08-17T20:33:25.147Z,100547.59
2022-08-17T20:36:19.445Z,100551.19
2022-08-17T20:38:53.700Z,100547.69
2022-08-17T20:41:23.698Z,100565.38
2022-08-17T20:44:03.212Z,100575.09
2022-08-17T20:46:49.805Z,100567.28
2022-08-17T20:49:17.169Z,100573.41
2022-08-17T20:52:07.632Z,100563.78
2022-08-17T20:54:52.210Z,100579.84
2022-08-17T20:57:36.714Z,100573.50
2022-08-17T21:00:14.949Z,100570.81
2022-08-17T21:02:47.293Z,100575.25
2022-08-17T21:05:59.843Z,100571.69
2022-08-17T21:08:37.225Z,100573.88
2022-08-17T21:12:02.311Z,100580.81
2022-08-17T21:14:26.687Z,100573.75
2022-08-17T21:17:14.844Z,100571.03
2022-08-17T21:20:11.960Z,100578.94
2022-08-17T21:23:06.641Z,100576.00
2022-08-17T21:25:57.665Z,100577.75
2022-08-17T21:29:00.463Z,100574.16
2022-08-17T21:31:38.238Z,100589.03
2022-08-17T21:34:45.222Z,100607.38
2022-08-17T21:37:22.185Z,100608.63
2022-08-17T21:40:18.209Z,100590.97
2022-08-17T21:42:47.698Z,100590.25
2022-08-17T21:45:22.274Z,100589.28
2022-08-17T21:48:09.025Z,100589.22
2022-08-17T21:50:36.025Z,100592.56
2022-08-17T21:53:04.038Z,100593.31
2022-08-17T21:55:33.942Z,100594.22
2022-08-17T21:58:13.675Z,100589.53
2022-08-17T22:00:44.310Z,100589.22
2022-08-17T22:03:24.188Z,100587.47
2022-08-17T22:05:51.318Z,100591.22
2022-08-17T22:08:21.426Z,100587.78
2022-08-17T22:10:50.674Z,100574.75
2022-08-17T22:13:17.689Z,100595.78
2022-08-17T22:15:48.041Z,100594.09
2022-08-17T22:18:25.006Z,100591.94
2022-08-17T22:21:02.468Z,100584.56
2022-08-17T22:23:50.888Z,100588.19
2022-08-17T22:26:19.505Z,100577.56
2022-08-17T22:28:56.345Z,100566.91
2022-08-17T22:31:27.755Z,100567.69
2022-08-17T22:33:59.896Z,100568.50
2022-08-17T22:36:26.355Z,100568.25
2022-08-17T22:39:02.079Z,100563.25
2022-08-17T22:41:51.804Z,100562.47
2022-08-17T22:44:34.062Z,100558.06
2022-08-17T22:47:06.701Z,100546.38
2022-08-17T22:49:54.132Z,100539.75
2022-08-17T22:53:01.831Z,100530.84
2022-08-17T22:55:51.693Z,100532.13
2022-08-17T22:58:38.980Z,100534.41
2022-08-17T23:01:25.511Z,100527.97
2022-08-17T23:04:35.720Z,100526.31
2022-08-17T23:07:02.275Z,100524.63
2022-08-17T23:09:29.854Z,100517.47
2022-08-17T23:11:58.449Z,100511.13
2022-08-17T23:14:31.535Z,100503.06
2022-08-17T23:17:02.030Z,100481.66
2022-08-17T23:19:31.598Z,100471.28
2022-08-17T23:21:59.206Z,100479.84
2022-08-17T23:24:28.861Z,100479.50
2022-08-17T23:26:59.966Z,100473.53
2022-08-17T23:29:29.207Z,100482.53
2022-08-17T23:31:59.615Z,100494.16
2022-08-17T23:34:27.983Z,100494.16
2022-08-17T23:36:55.146Z,100502.63
2022-08-17T23:39:24.682Z,100496.31
2022-08-17T23:41:57.021Z,100489.22
2022-08-17T23:44:23.809Z,100494.66
2022-08-17T23:49:20.227Z,100479.03
2022-08-17T23:51:48.151Z,100481.00
2022-08-17T23:54:34.011Z,100481.56
2022-08-17T23:57:02.183Z,100480.56
2022-08-17T23:59:29.182Z,100478.13
